Time;durP1;ratioP1;P1;durP2;ratioP2;P2;SDS_P1;SDS_P2;PMS_P1;PMS_P2;Temp;Humidity;BMP_temperature;BMP_pressure;BME280_temperature;BME280_humidity;BME280_pressure;Samples;Min_cycle;Max_cycle;Signal;HPM_P1;HPM_P2
2022/11/12 00:00:29;;;;;;;3.80;2.50;;;8.90;1.00;;;;;;5035091;28;20213;-62
2022/11/12 00:02:55;;;;;;;4.83;2.70;;;8.80;64.30;;;;;;5035149;28;20234;-61
2022/11/12 00:05:22;;;;;;;4.13;2.67;;;8.80;99.90;;;;;;5034940;28;20212;-61
2022/11/12 00:07:49;;;;;;;4.00;2.80;;;8.70;99.90;;;;;;5035550;28;20209;-62
2022/11/12 00:10:16;;;;;;;4.17;2.87;;;8.80;99.90;;;;;;5034982;28;20255;-61
2022/11/12 00:12:44;;;;;;;4.40;2.50;;;8.70;99.90;;;;;;5035005;28;20228;-62
2022/11/12 00:15:11;;;;;;;4.40;2.50;;;8.70;99.90;;;;;;5035064;28;20631;-62
2022/11/12 00:17:38;;;;;;;3.70;2.60;;;8.70;1.00;;;;;;5034904;28;20216;-62
2022/11/12 00:20:06;;;;;;;4.20;2.80;;;8.80;1.00;;;;;;5034995;28;20206;-62
2022/11/12 00:22:34;;;;;;;4.03;2.60;;;8.80;99.90;;;;;;5034895;28;20654;-62
2022/11/12 00:25:00;;;;;;;4.10;2.67;;;8.90;99.90;;;;;;5034819;28;20231;-62
2022/11/12 00:27:27;;;;;;;4.43;2.90;;;8.90;99.90;;;;;;5034733;28;20632;-62
2022/11/12 00:29:55;;;;;;;5.17;2.37;;;9.00;1.00;;;;;;5034619;28;20203;-61
2022/11/12 00:32:21;;;;;;;3.83;2.30;;;9.00;1.00;;;;;;5034918;28;20229;-62
2022/11/12 00:34:48;;;;;;;3.47;2.43;;;9.00;1.00;;;;;;5034672;28;20207;-62
2022/11/12 00:37:15;;;;;;;8.07;2.67;;;8.90;1.00;;;;;;5034468;28;20209;-62
2022/11/12 00:39:42;;;;;;;3.43;2.53;;;8.90;1.00;;;;;;5034512;28;20677;-61
2022/11/12 00:42:09;;;;;;;5.00;2.57;;;8.80;1.00;;;;;;5034321;28;20227;-62
2022/11/12 00:44:35;;;;;;;6.43;2.60;;;8.80;1.00;;;;;;5034622;28;20218;-62
2022/11/12 00:47:04;;;;;;;3.67;2.37;;;8.70;58.40;;;;;;5034190;28;20209;-62
2022/11/12 00:49:30;;;;;;;4.23;2.77;;;8.70;99.90;;;;;;5034496;28;20239;-62
2022/11/12 00:51:57;;;;;;;4.03;2.23;;;8.60;99.90;;;;;;5034270;28;20228;-62
2022/11/12 00:54:24;;;;;;;3.07;2.47;;;8.60;99.90;;;;;;5034261;28;20210;-62
2022/11/12 00:56:50;;;;;;;4.73;2.60;;;8.50;99.90;;;;;;5034133;28;20205;-62
2022/11/12 00:59:17;;;;;;;3.37;2.73;;;8.50;99.90;;;;;;5034388;28;20220;-62
2022/11/12 01:01:44;;;;;;;3.23;2.47;;;8.50;99.90;;;;;;5033843;28;20270;-62
2022/11/12 01:04:12;;;;;;;4.77;2.40;;;8.40;99.90;;;;;;5034175;28;20219;-62
2022/11/12 01:06:39;;;;;;;4.77;2.60;;;8.50;99.90;;;;;;5033722;28;20209;-61
2022/11/12 01:09:06;;;;;;;4.67;2.40;;;8.50;99.90;;;;;;5034388;28;20275;-62
2022/11/12 01:11:33;;;;;;;6.63;2.53;;;8.50;66.30;;;;;;5034153;28;20217;-61
2022/11/12 01:14:02;;;;;;;4.40;2.97;;;8.50;55.70;;;;;;5034038;28;20230;-62
2022/11/12 01:16:30;;;;;;;4.20;2.40;;;8.50;2.70;;;;;;5033759;28;20212;-62
2022/11/12 01:18:59;;;;;;;4.43;2.40;;;8.50;1.00;;;;;;5034057;28;20212;-62
2022/11/12 01:21:29;;;;;;;5.43;2.70;;;8.50;1.00;;;;;;5033553;28;20215;-62
2022/11/12 01:23:57;;;;;;;3.60;2.30;;;8.60;1.00;;;;;;5033932;28;20230;-62
2022/11/12 01:26:27;;;;;;;5.67;2.70;;;8.50;1.00;;;;;;5033687;28;20215;-62
2022/11/12 01:28:54;;;;;;;4.97;2.53;;;8.40;95.40;;;;;;5034053;28;20259;-62
2022/11/12 01:31:22;;;;;;;5.10;2.37;;;8.30;99.90;;;;;;5033680;28;20649;-62
2022/11/12 01:33:52;;;;;;;3.33;2.50;;;8.30;99.90;;;;;;5033641;28;20227;-61
2022/11/12 01:36:20;;;;;;;3.33;2.23;;;8.40;99.90;;;;;;5033526;28;20206;-61
2022/11/12 01:38:48;;;;;;;11.03;6.13;;;8.40;1.00;;;;;;5033773;28;20208;-62
2022/11/12 01:41:18;;;;;;;4.27;2.70;;;8.40;1.00;;;;;;5033636;28;20303;-61
2022/11/12 01:43:46;;;;;;;14.70;6.90;;;8.50;1.00;;;;;;5033360;28;20239;-62
2022/11/12 01:46:20;;;;;;;6.77;3.77;;;8.50;1.00;;;;;;5033081;28;20214;-63
2022/11/12 01:48:51;;;;;;;4.80;2.80;;;8.50;1.00;;;;;;5033393;28;20675;-62
2022/11/12 01:51:21;;;;;;;3.90;2.60;;;8.50;1.00;;;;;;5033220;28;20698;-62
2022/11/12 01:53:54;;;;;;;3.37;2.83;;;8.40;1.00;;;;;;5033428;28;20279;-62
2022/11/12 01:56:22;;;;;;;3.47;2.60;;;8.30;99.90;;;;;;5033133;28;20630;-62
2022/11/12 01:58:54;;;;;;;4.67;2.30;;;8.20;99.90;;;;;;5032843;28;20219;-63
2022/11/12 02:01:20;;;;;;;6.37;2.97;;;8.20;99.90;;;;;;5033176;28;20267;-62
2022/11/12 02:03:47;;;;;;;4.33;2.60;;;8.20;99.90;;;;;;5033091;28;20232;-62
2022/11/12 02:06:15;;;;;;;5.17;2.53;;;8.10;99.90;;;;;;5032682;28;20224;-62
2022/11/12 02:08:44;;;;;;;2.33;2.00;;;8.00;99.90;;;;;;5033013;28;20208;-61
2022/11/12 02:11:15;;;;;;;4.03;2.77;;;8.00;99.90;;;;;;5032680;28;20210;-62
2022/11/12 02:16:29;;;;;;;5.47;2.67;;;7.90;38.70;;;;;;5032143;28;20205;-63
2022/11/12 02:18:55;;;;;;;5.17;2.50;;;7.90;99.90;;;;;;5033252;28;20627;-62
2022/11/12 02:21:24;;;;;;;2.90;2.57;;;7.80;99.90;;;;;;5032143;28;20215;-63
2022/11/12 02:23:58;;;;;;;3.30;2.10;;;7.80;99.90;;;;;;5032422;28;20590;-62
2022/11/12 02:26:25;;;;;;;2.73;2.20;;;7.80;99.90;;;;;;5032620;28;20260;-61
2022/11/12 02:28:52;;;;;;;3.20;2.10;;;7.80;99.90;;;;;;5032718;28;20240;-62
2022/11/12 02:31:19;;;;;;;5.07;3.23;;;7.80;99.90;;;;;;5032676;28;20206;-62
2022/11/12 02:33:45;;;;;;;4.43;2.10;;;7.80;99.90;;;;;;5032427;28;20224;-62
2022/11/12 02:36:12;;;;;;;4.90;2.20;;;7.90;99.90;;;;;;5032152;28;20213;-62
2022/11/12 02:38:40;;;;;;;3.73;2.30;;;7.80;99.90;;;;;;5032116;28;20218;-61
2022/11/12 02:41:06;;;;;;;7.27;2.40;;;7.80;99.90;;;;;;5032160;28;20706;-62
2022/11/12 02:43:33;;;;;;;3.27;2.20;;;7.80;99.90;;;;;;5032283;28;20262;-62
2022/11/12 02:46:00;;;;;;;5.13;2.40;;;7.80;99.90;;;;;;5032210;28;20260;-62
2022/11/12 02:48:26;;;;;;;2.90;2.30;;;7.80;99.90;;;;;;5032179;28;20202;-62
2022/11/12 02:50:53;;;;;;;3.00;2.13;;;7.90;99.90;;;;;;5031913;28;20247;-62
2022/11/12 02:53:20;;;;;;;4.57;2.30;;;7.90;99.90;;;;;;5031915;28;20712;-62
2022/11/12 02:55:48;;;;;;;3.70;2.20;;;7.90;99.90;;;;;;5032320;28;20217;-62
2022/11/12 02:58:14;;;;;;;4.53;2.40;;;8.00;99.90;;;;;;5031651;28;20256;-62
2022/11/12 03:00:41;;;;;;;4.13;2.60;;;8.10;99.90;;;;;;5032408;28;20202;-62
2022/11/12 03:03:08;;;;;;;4.07;2.43;;;8.20;99.90;;;;;;5031883;28;20635;-61
2022/11/12 03:05:35;;;;;;;4.70;2.60;;;8.20;99.90;;;;;;5032016;28;20281;-62
2022/11/12 03:08:04;;;;;;;3.00;2.00;;;8.20;99.90;;;;;;5031890;28;20276;-62
2022/11/12 03:10:31;;;;;;;4.60;2.17;;;8.20;99.90;;;;;;5032239;28;20225;-62
2022/11/12 03:13:01;;;;;;;2.77;2.03;;;8.20;99.90;;;;;;5031892;28;20225;-62
2022/11/12 03:15:29;;;;;;;3.30;2.27;;;8.20;99.90;;;;;;5031891;28;20297;-62
2022/11/12 03:17:57;;;;;;;2.40;2.10;;;8.20;99.90;;;;;;5031326;28;20254;-62
2022/11/12 03:20:24;;;;;;;5.00;2.63;;;8.20;99.90;;;;;;5031741;28;20752;-62
2022/11/12 03:22:58;;;;;;;4.93;2.63;;;8.20;99.90;;;;;;5031505;28;20302;-62
2022/11/12 03:25:25;;;;;;;2.97;2.40;;;8.30;99.90;;;;;;5031858;28;20210;-62
2022/11/12 03:27:59;;;;;;;6.57;2.20;;;8.30;99.90;;;;;;5031422;28;20209;-62
2022/11/12 03:30:28;;;;;;;3.50;2.57;;;8.30;99.90;;;;;;5031454;28;20680;-62
2022/11/12 03:32:54;;;;;;;3.57;2.10;;;8.30;99.90;;;;;;5031483;28;20231;-61
2022/11/12 03:35:22;;;;;;;5.30;2.23;;;8.30;99.90;;;;;;5035405;28;20794;-62
2022/11/12 03:37:49;;;;;;;3.63;2.20;;;8.30;99.90;;;;;;5035626;28;20273;-62
2022/11/12 03:40:17;;;;;;;3.27;2.40;;;8.30;99.90;;;;;;5035590;28;20217;-62
2022/11/12 03:42:47;;;;;;;3.47;1.97;;;8.20;99.90;;;;;;5034047;28;20231;-62
2022/11/12 03:45:16;;;;;;;3.03;2.30;;;8.30;99.90;;;;;;5034232;28;20271;-61
2022/11/12 03:47:43;;;;;;;3.33;2.43;;;8.30;99.90;;;;;;5034031;28;20256;-62
2022/11/12 03:50:10;;;;;;;3.03;2.20;;;8.30;99.90;;;;;;5034169;28;20979;-62
2022/11/12 03:52:37;;;;;;;3.27;2.20;;;8.30;99.90;;;;;;5034115;28;20226;-62
2022/11/12 03:55:05;;;;;;;3.77;2.20;;;8.30;99.90;;;;;;5034260;28;20256;-62
2022/11/12 03:57:31;;;;;;;3.77;1.90;;;8.20;99.90;;;;;;5033739;28;20248;-62
2022/11/12 03:59:58;;;;;;;4.33;2.17;;;8.20;99.90;;;;;;5034048;28;20240;-62
2022/11/12 04:02:28;;;;;;;5.10;2.00;;;8.30;99.90;;;;;;5034082;28;20282;-62
2022/11/12 04:10:23;;;;;;;2.60;2.07;;;8.30;99.90;;;;;;5033984;28;20225;-62
2022/11/12 04:15:34;;;;;;;5.13;2.00;;;8.30;99.90;;;;;;5033940;28;20212;-62
2022/11/12 04:23:33;;;;;;;2.70;1.97;;;8.20;99.90;;;;;;5033607;28;20240;-62
2022/11/12 04:30:14;;;;;;;2.77;1.90;;;8.20;99.90;;;;;;5033069;28;20253;-62
2022/11/12 04:31:30;;;;;;;2.83;1.90;;;8.20;99.90;;;;;;5033486;28;20220;-62
2022/11/12 04:34:27;;;;;;;3.07;2.00;;;8.20;99.90;;;;;;5033290;28;20750;-62
2022/11/12 04:36:45;;;;;;;5.07;2.07;;;8.20;99.90;;;;;;5033121;28;20217;-62
2022/11/12 04:39:11;;;;;;;3.47;2.17;;;8.20;99.90;;;;;;5033779;28;20203;-61
2022/11/12 04:47:06;;;;;;;3.60;2.23;;;8.20;88.80;;;;;;5034140;28;20249;-62
2022/11/12 04:49:34;;;;;;;4.77;2.17;;;8.20;78.00;;;;;;5034088;28;20249;-62
2022/11/12 04:52:07;;;;;;;2.37;1.87;;;8.10;99.10;;;;;;5034253;28;20303;-62
2022/11/12 04:54:34;;;;;;;4.13;2.00;;;8.20;54.70;;;;;;5034374;28;20206;-62
2022/11/12 04:57:01;;;;;;;2.70;1.87;;;8.20;13.50;;;;;;5034122;28;20281;-61
2022/11/12 04:59:27;;;;;;;5.33;2.40;;;8.20;1.00;;;;;;5034228;28;20628;-62
2022/11/12 05:01:54;;;;;;;4.80;2.67;;;8.30;1.00;;;;;;5034209;28;20219;-64
2022/11/12 05:04:21;;;;;;;4.30;2.13;;;8.30;1.00;;;;;;5033834;28;20286;-64
2022/11/12 05:06:53;;;;;;;4.03;1.80;;;8.30;1.00;;;;;;5034198;28;20282;-62
2022/11/12 05:09:22;;;;;;;3.10;2.00;;;8.40;99.90;;;;;;5034402;28;20252;-62
2022/11/12 05:11:48;;;;;;;3.17;1.90;;;8.40;99.90;;;;;;5034077;28;20213;-62
2022/11/12 05:14:15;;;;;;;8.00;3.50;;;8.40;99.90;;;;;;5033812;28;20593;-62
2022/11/12 05:16:42;;;;;;;4.53;1.90;;;8.40;99.90;;;;;;5033684;28;20211;-62
2022/11/12 05:19:09;;;;;;;7.23;3.13;;;8.30;99.90;;;;;;5034033;28;20247;-63
2022/11/12 05:24:22;;;;;;;5.23;2.70;;;8.30;99.90;;;;;;5033278;28;20234;-63
2022/11/12 05:26:48;;;;;;;5.60;2.77;;;8.20;1.00;;;;;;5033641;28;20208;-62
2022/11/12 05:29:15;;;;;;;5.10;2.03;;;8.20;1.00;;;;;;5033405;28;20206;-62
2022/11/12 05:31:42;;;;;;;6.43;3.27;;;8.20;1.00;;;;;;5033755;28;20219;-62
2022/11/12 05:34:08;;;;;;;5.30;2.83;;;8.20;1.00;;;;;;5033611;28;20215;-63
2022/11/12 05:36:35;;;;;;;3.67;2.50;;;8.10;1.00;;;;;;5033389;28;20212;-62
2022/11/12 05:39:02;;;;;;;3.40;2.03;;;8.00;1.00;;;;;;5033376;28;20265;-63
2022/11/12 05:41:30;;;;;;;4.67;3.03;;;8.00;13.40;;;;;;5032952;28;20215;-62
2022/11/12 05:43:57;;;;;;;8.73;2.73;;;7.90;57.60;;;;;;5033045;28;20292;-61
2022/11/12 05:46:24;;;;;;;2.77;2.03;;;7.90;95.50;;;;;;5033323;28;20211;-62
2022/11/12 05:48:50;;;;;;;3.50;2.30;;;7.80;99.90;;;;;;5032916;28;20211;-62
2022/11/12 05:51:17;;;;;;;2.70;1.90;;;7.80;99.90;;;;;;5033285;28;20239;-63
2022/11/12 05:53:44;;;;;;;2.93;2.23;;;7.80;99.90;;;;;;5033073;28;20235;-62
2022/11/12 05:56:11;;;;;;;3.53;2.50;;;7.70;99.90;;;;;;5032076;28;20214;-63
2022/11/12 05:58:39;;;;;;;3.20;2.30;;;7.70;99.90;;;;;;5032961;28;20264;-63
2022/11/12 06:01:07;;;;;;;4.90;2.77;;;7.70;99.90;;;;;;5033189;28;20202;-62
2022/11/12 06:03:33;;;;;;;2.83;2.00;;;7.70;99.90;;;;;;5032752;28;20234;-63
2022/11/12 06:06:00;;;;;;;5.97;2.47;;;7.70;99.90;;;;;;5032666;28;20673;-63
2022/11/12 06:08:27;;;;;;;3.73;2.03;;;7.70;99.90;;;;;;5033003;28;20229;-63
2022/11/12 06:10:54;;;;;;;2.67;1.70;;;7.70;99.90;;;;;;5032561;28;20214;-63
2022/11/12 06:13:22;;;;;;;3.70;2.13;;;7.70;99.90;;;;;;5032265;28;20713;-63
2022/11/12 06:15:52;;;;;;;2.57;1.83;;;7.60;99.90;;;;;;5032828;28;20206;-62
2022/11/12 06:18:18;;;;;;;4.40;2.50;;;7.60;99.90;;;;;;5032686;28;20674;-62
2022/11/12 06:21:18;;;;;;;3.83;2.53;;;7.60;99.90;;;;;;5032568;28;20618;-62
2022/11/12 06:23:32;;;;;;;3.20;1.90;;;7.60;99.90;;;;;;5032284;28;20299;-62
2022/11/12 06:25:59;;;;;;;2.73;2.00;;;7.60;99.90;;;;;;5032447;28;20202;-63
2022/11/12 06:28:25;;;;;;;2.83;1.87;;;7.60;99.90;;;;;;5032638;28;20210;-62
2022/11/12 06:30:53;;;;;;;2.13;1.80;;;7.60;99.90;;;;;;5032454;28;20226;-62
2022/11/12 06:33:20;;;;;;;2.27;1.87;;;7.50;99.90;;;;;;5032542;28;20222;-62
2022/11/12 06:35:47;;;;;;;2.77;2.00;;;7.50;99.90;;;;;;5032337;28;20218;-62
2022/11/12 06:38:14;;;;;;;2.40;1.83;;;7.50;99.90;;;;;;5032044;28;20221;-63
2022/11/12 06:40:41;;;;;;;2.53;1.80;;;7.50;99.90;;;;;;5032031;28;20210;-62
2022/11/12 06:43:08;;;;;;;2.37;2.17;;;7.50;99.90;;;;;;5032301;28;20226;-62
2022/11/12 06:45:37;;;;;;;3.00;2.03;;;7.50;99.90;;;;;;5032137;28;20209;-63
2022/11/12 06:48:05;;;;;;;2.57;1.80;;;7.50;99.90;;;;;;5032134;28;20256;-63
2022/11/12 06:50:32;;;;;;;3.13;1.60;;;7.40;99.90;;;;;;5031670;28;20234;-62
2022/11/12 06:52:59;;;;;;;2.97;1.63;;;7.40;99.90;;;;;;5032232;28;20231;-62
2022/11/12 06:55:25;;;;;;;3.47;1.73;;;7.40;99.90;;;;;;5032171;28;20210;-62
2022/11/12 06:57:52;;;;;;;3.07;1.70;;;7.40;99.90;;;;;;5031967;28;20218;-63
2022/11/12 07:00:19;;;;;;;2.30;1.83;;;7.40;99.90;;;;;;5031834;28;20678;-62
2022/11/12 07:02:46;;;;;;;1.97;1.67;;;7.50;99.90;;;;;;5032030;28;20273;-63
2022/11/12 07:05:14;;;;;;;4.07;1.97;;;7.50;99.90;;;;;;5031687;28;20791;-62
2022/11/12 07:07:41;;;;;;;2.03;1.63;;;7.40;99.90;;;;;;5031781;28;20218;-62
2022/11/12 07:10:09;;;;;;;2.20;1.70;;;7.40;99.90;;;;;;5032056;28;20214;-63
2022/11/12 07:12:35;;;;;;;3.57;1.77;;;7.50;99.90;;;;;;5031861;28;20230;-62
2022/11/12 07:15:02;;;;;;;2.20;1.70;;;7.50;99.90;;;;;;5031724;28;20215;-63
2022/11/12 07:17:29;;;;;;;2.90;2.00;;;7.60;99.90;;;;;;5031755;28;20207;-63
2022/11/12 07:19:55;;;;;;;3.27;1.60;;;7.60;99.90;;;;;;5031915;28;20261;-62
2022/11/12 07:22:23;;;;;;;3.83;2.00;;;7.70;99.90;;;;;;5031801;28;20265;-63
2022/11/12 07:24:50;;;;;;;2.33;1.57;;;7.80;99.90;;;;;;5032018;28;20234;-63
2022/11/12 07:27:17;;;;;;;2.00;1.83;;;7.80;99.90;;;;;;5031350;28;20214;-62
2022/11/12 07:29:43;;;;;;;4.27;2.13;;;7.90;99.90;;;;;;5031686;28;20756;-63
2022/11/12 07:32:10;;;;;;;3.23;1.70;;;7.90;99.90;;;;;;5031486;28;20278;-62
2022/11/12 07:34:36;;;;;;;2.10;1.70;;;7.90;99.90;;;;;;5031885;28;20232;-63
2022/11/12 07:37:03;;;;;;;3.50;1.70;;;8.00;99.90;;;;;;5031242;28;20206;-63
2022/11/12 07:39:31;;;;;;;2.07;1.70;;;8.10;95.30;;;;;;5031487;28;20215;-63
2022/11/12 07:41:58;;;;;;;2.30;1.70;;;8.20;8.50;;;;;;5031350;28;20756;-62
2022/11/12 07:44:24;;;;;;;4.50;2.07;;;8.20;1.00;;;;;;5031517;28;20218;-63
2022/11/12 07:46:51;;;;;;;3.17;2.10;;;8.40;1.00;;;;;;5031232;28;20211;-63
2022/11/12 07:49:18;;;;;;;3.50;2.50;;;8.40;1.00;;;;;;5031575;28;20220;-63
2022/11/12 07:51:44;;;;;;;2.60;1.87;;;8.60;99.90;;;;;;5031496;28;20204;-63
2022/11/12 07:54:12;;;;;;;3.03;1.87;;;8.70;99.90;;;;;;5031602;28;20234;-62
2022/11/12 07:56:40;;;;;;;3.93;2.30;;;8.80;99.90;;;;;;5031170;28;20688;-63
2022/11/12 07:59:07;;;;;;;4.60;2.27;;;8.80;99.90;;;;;;5031554;28;20586;-63
2022/11/12 08:01:35;;;;;;;3.03;2.10;;;8.90;99.90;;;;;;5031292;28;20220;-63
2022/11/12 08:04:04;;;;;;;3.40;2.00;;;9.10;1.00;;;;;;5031266;28;20786;-63
2022/11/12 08:06:32;;;;;;;4.27;1.80;;;9.20;1.00;;;;;;5031019;28;20214;-63
2022/11/12 08:09:00;;;;;;;1.60;1.47;;;9.30;99.90;;;;;;5031472;28;20213;-63
2022/11/12 08:11:27;;;;;;;3.53;1.90;;;9.50;67.00;;;;;;5031319;28;20217;-62
2022/11/12 08:13:55;;;;;;;3.67;1.80;;;9.60;99.90;;;;;;5031184;28;20233;-63
2022/11/12 08:16:22;;;;;;;2.00;1.47;;;9.80;98.20;;;;;;5031211;28;20206;-63
2022/11/12 08:18:49;;;;;;;2.13;1.20;;;10.00;1.00;;;;;;5031255;28;20564;-63
2022/11/12 08:21:17;;;;;;;2.47;1.73;;;10.20;1.00;;;;;;5033996;28;20217;-63
2022/11/12 08:23:44;;;;;;;1.80;1.33;;;10.40;1.00;;;;;;5034593;28;20238;-63
2022/11/12 08:26:12;;;;;;;2.97;1.40;;;10.60;1.00;;;;;;5034523;28;20673;-63
2022/11/12 08:28:39;;;;;;;2.13;1.57;;;10.70;1.00;;;;;;5034384;28;20206;-63
2022/11/12 08:31:09;;;;;;;3.00;1.40;;;10.80;99.90;;;;;;5034369;28;20717;-63
2022/11/12 08:33:36;;;;;;;3.67;1.60;;;11.10;99.90;;;;;;5034794;28;20249;-63
2022/11/12 08:36:04;;;;;;;1.87;1.30;;;11.20;99.90;;;;;;5034268;28;20202;-62
2022/11/12 08:38:32;;;;;;;2.27;1.20;;;11.30;68.20;;;;;;5034424;28;20260;-63
2022/11/12 08:41:00;;;;;;;2.20;1.00;;;11.50;16.90;;;;;;5034286;28;20823;-63
2022/11/12 08:43:27;;;;;;;3.00;1.50;;;11.70;1.00;;;;;;5034696;28;20276;-63
2022/11/12 08:45:53;;;;;;;4.10;1.53;;;11.80;1.00;;;;;;5034582;28;20297;-62
2022/11/12 08:48:21;;;;;;;4.10;1.40;;;12.00;1.00;;;;;;5034286;28;20205;-63
2022/11/12 08:50:48;;;;;;;1.73;1.33;;;12.10;1.00;;;;;;5034316;28;20285;-63
2022/11/12 08:53:15;;;;;;;1.93;1.30;;;12.20;1.00;;;;;;5034225;28;20276;-63
2022/11/12 08:55:42;;;;;;;1.80;1.20;;;12.40;1.00;;;;;;5034258;28;20213;-63
2022/11/12 08:58:09;;;;;;;2.17;1.10;;;12.50;99.90;;;;;;5033788;28;20217;-63
2022/11/12 09:00:38;;;;;;;2.63;1.17;;;12.70;99.90;;;;;;5034233;28;20679;-61
2022/11/12 09:03:08;;;;;;;2.33;1.20;;;12.80;99.90;;;;;;5033888;28;20226;-63
2022/11/12 09:05:36;;;;;;;1.73;1.20;;;12.90;99.90;;;;;;5033906;28;20231;-63
2022/11/12 09:08:05;;;;;;;2.47;1.20;;;13.10;99.90;;;;;;5033532;28;20202;-63
2022/11/12 09:10:32;;;;;;;3.03;1.27;;;13.20;99.90;;;;;;5034149;28;20276;-62
2022/11/12 09:12:59;;;;;;;1.90;1.30;;;13.20;99.90;;;;;;5033906;28;20230;-63
2022/11/12 09:15:26;;;;;;;3.30;1.20;;;13.40;99.90;;;;;;5034092;28;20202;-63
2022/11/12 09:17:56;;;;;;;3.67;1.17;;;13.50;99.90;;;;;;5033485;28;20260;-63
2022/11/12 09:20:22;;;;;;;2.30;1.30;;;13.60;99.90;;;;;;5033606;28;20313;-63
2022/11/12 09:22:51;;;;;;;1.60;1.27;;;13.70;99.90;;;;;;5033539;28;20272;-63
2022/11/12 09:25:18;;;;;;;1.70;1.03;;;13.70;99.90;;;;;;5033979;28;20230;-63
2022/11/12 09:27:44;;;;;;;2.17;1.03;;;13.80;99.90;;;;;;5033531;28;20210;-62
2022/11/12 09:30:12;;;;;;;2.03;1.13;;;13.90;99.90;;;;;;5033457;28;20245;-63
2022/11/12 09:32:38;;;;;;;1.23;1.10;;;14.00;99.90;;;;;;5032264;28;20250;-63
2022/11/12 09:35:06;;;;;;;1.20;1.07;;;14.10;99.90;;;;;;5033508;28;20210;-62
2022/11/12 09:37:33;;;;;;;2.23;1.17;;;14.20;99.90;;;;;;5032909;28;20206;-63
2022/11/12 09:40:01;;;;;;;2.47;1.10;;;14.30;99.90;;;;;;5033132;28;20261;-63
2022/11/12 09:42:27;;;;;;;2.20;1.40;;;14.40;99.90;;;;;;5026508;28;20378;-63
2022/11/12 09:44:59;;;;;;;2.20;1.00;;;14.50;99.90;;;;;;5020407;28;20280;-69
2022/11/12 09:47:29;;;;;;;6.97;1.80;;;14.50;99.90;;;;;;5032527;28;20206;-63
2022/11/12 09:50:03;;;;;;;3.23;1.87;;;14.70;99.90;;;;;;5032808;28;20214;-66
2022/11/12 09:52:30;;;;;;;3.07;1.70;;;14.80;99.90;;;;;;5032241;28;20716;-66
2022/11/12 09:55:07;;;;;;;3.23;1.70;;;14.80;99.90;;;;;;5032819;28;20198;-64
2022/11/12 09:57:34;;;;;;;3.40;1.80;;;14.80;99.90;;;;;;5032731;28;20637;-63
2022/11/12 10:00:02;;;;;;;4.87;2.00;;;14.80;99.90;;;;;;5032244;28;20210;-64
2022/11/12 10:02:35;;;;;;;2.40;1.70;;;14.80;99.90;;;;;;5032874;28;20766;-64
2022/11/12 10:05:22;;;;;;;2.37;1.57;;;14.80;99.90;;;;;;5032544;28;20230;-64
2022/11/12 10:08:06;;;;;;;2.40;1.73;;;14.80;99.90;;;;;;5032047;28;20289;-63
2022/11/12 10:10:41;;;;;;;2.13;1.63;;;14.90;99.90;;;;;;5032195;28;20681;-63
2022/11/12 10:13:25;;;;;;;2.27;1.50;;;14.90;99.90;;;;;;5032438;28;20226;-63
2022/11/12 10:19:38;;;;;;;2.23;1.70;;;15.20;99.90;;;;;;5031931;28;20646;-61
2022/11/12 10:22:18;;;;;;;2.00;1.30;;;15.30;99.90;;;;;;5032308;28;20579;-61
2022/11/12 10:24:45;;;;;;;1.30;1.10;;;15.40;99.90;;;;;;5032140;28;20249;-61
2022/11/12 10:27:18;;;;;;;1.97;1.10;;;15.50;99.90;;;;;;5031645;28;20590;-61
2022/11/12 10:29:53;;;;;;;2.10;1.20;;;15.50;99.90;;;;;;5032015;28;20210;-61
2022/11/12 10:32:20;;;;;;;1.60;1.20;;;15.60;99.90;;;;;;5031866;28;20740;-59
2022/11/12 10:34:46;;;;;;;1.87;1.10;;;15.70;99.90;;;;;;5031786;28;20573;-61
2022/11/12 10:37:19;;;;;;;2.00;1.10;;;15.70;99.90;;;;;;5031651;28;20680;-64
2022/11/12 10:39:46;;;;;;;1.30;1.03;;;15.80;99.90;;;;;;5030595;28;20561;-60
2022/11/12 10:42:17;;;;;;;3.60;1.60;;;15.90;99.90;;;;;;5031170;28;20242;-61
2022/11/12 10:44:44;;;;;;;10.20;1.80;;;15.90;99.90;;;;;;5037761;28;20214;-58
2022/11/12 10:47:21;;;;;;;3.30;1.87;;;16.00;99.90;;;;;;5027944;28;20213;-61
2022/11/12 10:50:14;;;;;;;4.57;1.77;;;16.00;99.90;;;;;;5032805;28;20214;-60
2022/11/12 10:52:53;;;;;;;3.17;1.60;;;16.00;99.90;;;;;;5030939;28;20229;-64
2022/11/12 10:55:22;;;;;;;3.67;1.67;;;16.10;99.90;;;;;;5031775;28;20206;-62
2022/11/12 10:58:13;;;;;;;2.73;1.70;;;16.20;99.90;;;;;;5031387;28;20217;-62
2022/11/12 11:00:53;;;;;;;8.97;3.33;;;16.20;99.90;;;;;;5031845;28;20621;-62
2022/11/12 11:03:23;;;;;;;6.60;3.23;;;16.00;99.90;;;;;;5031533;28;20280;-62
2022/11/12 11:05:53;;;;;;;7.87;3.40;;;15.90;99.90;;;;;;5027299;28;20222;-61
2022/11/12 11:08:36;;;;;;;10.17;4.27;;;15.60;99.90;;;;;;5032028;28;20542;-64
2022/11/12 11:11:22;;;;;;;6.37;3.67;;;15.40;99.90;;;;;;5030490;28;20206;-61
2022/11/12 11:13:53;;;;;;;8.70;4.27;;;15.30;99.90;;;;;;5031246;28;20225;-66
2022/11/12 11:16:21;;;;;;;122.47;61.40;;;15.10;99.90;;;;;;5030881;28;20209;-64
2022/11/12 11:18:52;;;;;;;13.40;5.47;;;15.00;99.90;;;;;;5031431;28;20236;-63
2022/11/12 11:21:58;;;;;;;6.43;4.40;;;15.00;99.90;;;;;;5031019;28;20607;-63
2022/11/12 11:24:39;;;;;;;13.27;5.03;;;15.00;99.90;;;;;;4991123;28;20202;-65
2022/11/12 11:27:18;;;;;;;6.83;4.23;;;15.00;99.90;;;;;;5031281;28;20209;-65
2022/11/12 11:29:57;;;;;;;8.57;4.60;;;15.00;99.90;;;;;;5031126;28;20202;-65
2022/11/12 11:32:47;;;;;;;8.37;4.67;;;15.00;99.90;;;;;;5031258;28;20229;-65
2022/11/12 11:35:24;;;;;;;8.93;5.03;;;15.10;99.90;;;;;;5031324;28;20206;-61
2022/11/12 11:38:48;;;;;;;8.50;5.27;;;15.10;99.90;;;;;;5030906;28;20201;-62
2022/11/12 11:41:31;;;;;;;9.13;4.70;;;15.20;99.90;;;;;;4967468;28;20223;-60
2022/11/12 11:44:06;;;;;;;12.30;5.10;;;15.20;99.90;;;;;;5030812;28;20233;-60
2022/11/12 11:46:57;;;;;;;6.53;5.20;;;15.30;99.90;;;;;;5030748;28;20706;-61
2022/11/12 11:49:51;;;;;;;8.73;4.77;;;15.40;99.90;;;;;;5030861;28;20214;-60
2022/11/12 11:52:34;;;;;;;10.67;4.53;;;15.40;99.90;;;;;;5028267;28;20276;-64
2022/11/12 11:55:15;;;;;;;7.80;4.60;;;15.30;99.90;;;;;;5031972;28;20728;-62
2022/11/12 11:57:56;;;;;;;9.77;4.37;;;15.30;99.90;;;;;;5042486;28;20210;-59
2022/11/12 12:00:25;;;;;;;6.13;4.00;;;15.30;99.90;;;;;;5054969;28;20201;-59
2022/11/12 12:03:12;;;;;;;6.67;4.23;;;15.30;99.90;;;;;;5054698;28;20310;-58
2022/11/12 12:05:43;;;;;;;8.70;4.47;;;15.40;99.90;;;;;;5054505;28;20226;-59
2022/11/12 12:08:15;;;;;;;8.13;4.13;;;15.50;99.90;;;;;;5054779;28;20213;-59
2022/11/12 12:10:55;;;;;;;6.37;3.77;;;15.60;99.90;;;;;;5054465;28;20201;-62
2022/11/12 12:13:32;;;;;;;5.77;3.80;;;15.70;99.90;;;;;;5054029;28;20302;-60
2022/11/12 12:16:26;;;;;;;7.33;5.00;;;15.90;99.90;;;;;;5054671;28;20244;-60
2022/11/12 12:19:02;;;;;;;6.90;3.50;;;15.90;99.90;;;;;;5055014;28;20208;-59
2022/11/12 12:21:33;;;;;;;7.70;3.70;;;16.00;99.90;;;;;;5054677;28;20228;-60
2022/11/12 12:24:27;;;;;;;8.60;4.13;;;16.10;99.90;;;;;;5054662;28;20597;-60
2022/11/12 12:26:57;;;;;;;5.83;3.20;;;16.30;99.90;;;;;;5051615;28;20599;-60
2022/11/12 12:29:31;;;;;;;7.37;3.13;;;16.40;99.90;;;;;;5034690;28;20838;-60
2022/11/12 12:32:04;;;;;;;6.57;3.43;;;16.40;99.90;;;;;;5034251;28;20583;-60
2022/11/12 12:34:38;;;;;;;5.73;3.37;;;16.60;99.90;;;;;;5034934;28;20210;-60
2022/11/12 12:37:11;;;;;;;4.23;3.30;;;16.60;99.90;;;;;;5034538;28;20398;-60
2022/11/12 12:39:44;;;;;;;3.60;2.20;;;16.70;99.90;;;;;;5034304;28;20621;-60
2022/11/12 12:42:17;;;;;;;6.57;2.97;;;16.70;99.90;;;;;;5034483;28;20241;-60
2022/11/12 12:45:03;;;;;;;4.70;3.13;;;16.80;99.90;;;;;;5034299;28;20606;-59
2022/11/12 12:47:36;;;;;;;7.40;3.03;;;16.70;99.90;;;;;;5034246;28;20272;-60
2022/11/12 12:50:11;;;;;;;7.70;2.90;;;16.90;99.90;;;;;;5034529;28;20558;-60
2022/11/12 12:53:00;;;;;;;6.17;3.13;;;16.90;99.90;;;;;;5034173;28;20312;-60
2022/11/12 12:55:36;;;;;;;4.30;2.67;;;16.90;99.90;;;;;;5034294;28;20222;-60
2022/11/12 12:58:02;;;;;;;7.83;2.83;;;16.90;99.90;;;;;;5034978;28;20229;-60
2022/11/12 13:00:35;;;;;;;5.23;2.80;;;16.90;99.90;;;;;;5034277;28;20214;-60
2022/11/12 13:03:01;;;;;;;6.53;2.37;;;17.00;99.90;;;;;;5034049;28;20226;-60
2022/11/12 13:05:32;;;;;;;7.73;5.20;;;17.10;99.90;;;;;;5033450;28;20625;-60
2022/11/12 13:08:04;;;;;;;3.53;1.97;;;17.10;99.90;;;;;;5034115;28;20211;-60
2022/11/12 13:10:50;;;;;;;7.07;3.33;;;17.10;99.90;;;;;;5034152;28;20207;-60
2022/11/12 13:13:32;;;;;;;7.67;4.00;;;17.30;99.90;;;;;;5034064;28;20249;-60
2022/11/12 13:16:00;;;;;;;8.57;4.30;;;17.30;99.90;;;;;;5033738;28;20199;-60
2022/11/12 13:19:00;;;;;;;6.47;4.33;;;17.30;99.90;;;;;;5034053;28;20213;-60
2022/11/12 13:21:30;;;;;;;8.20;3.77;;;17.30;99.90;;;;;;5034674;28;20202;-60
2022/11/12 13:24:09;;;;;;;6.13;3.90;;;17.20;99.90;;;;;;5033516;28;20237;-60
2022/11/12 13:26:51;;;;;;;9.17;3.40;;;17.10;99.90;;;;;;5033494;28;20673;-60
2022/11/12 13:29:39;;;;;;;5.77;3.67;;;17.20;99.90;;;;;;5033613;28;20210;-60
2022/11/12 13:32:29;;;;;;;7.20;4.00;;;17.10;99.90;;;;;;5033467;28;20226;-60
2022/11/12 13:35:29;;;;;;;8.43;4.07;;;17.20;99.90;;;;;;5033527;28;20221;-60
2022/11/12 13:37:59;;;;;;;12.43;4.20;;;17.10;99.90;;;;;;5033210;28;20283;-60
2022/11/12 13:40:39;;;;;;;10.50;3.83;;;17.20;99.90;;;;;;5033529;28;20214;-60
2022/11/12 13:43:30;;;;;;;6.43;3.73;;;17.10;99.90;;;;;;5032937;28;20704;-60